sensor_id;sensor_type;location;lat;lon;timestamp;pressure;altitude;pressure_sealevel;temperature;humidity
56831;BME280;42713;42.676;23.352;2023-07-31T00:01:34;94456.19;;;22.10;62.44
56831;BME280;42713;42.676;23.352;2023-07-31T00:04:00;94460.66;;;21.97;62.69
56831;BME280;42713;42.676;23.352;2023-07-31T00:06:26;94451.91;;;21.88;63.37
56831;BME280;42713;42.676;23.352;2023-07-31T00:08:51;94449.41;;;21.83;63.65
56831;BME280;42713;42.676;23.352;2023-07-31T00:11:16;94443.78;;;21.84;63.97
56831;BME280;42713;42.676;23.352;2023-07-31T00:13:42;94454.00;;;21.73;63.93
56831;BME280;42713;42.676;23.352;2023-07-31T00:16:07;94463.88;;;21.73;63.90
56831;BME280;42713;42.676;23.352;2023-07-31T00:18:33;94456.19;;;21.71;63.97
56831;BME280;42713;42.676;23.352;2023-07-31T00:20:58;94447.00;;;21.60;64.48
56831;BME280;42713;42.676;23.352;2023-07-31T00:23:24;94451.69;;;21.63;64.65
56831;BME280;42713;42.676;23.352;2023-07-31T00:25:49;94451.03;;;21.57;64.80
56831;BME280;42713;42.676;23.352;2023-07-31T00:28:15;94457.34;;;21.61;64.90
56831;BME280;42713;42.676;23.352;2023-07-31T00:30:40;94445.44;;;21.59;65.28
56831;BME280;42713;42.676;23.352;2023-07-31T00:33:06;94438.22;;;21.59;66.10
56831;BME280;42713;42.676;23.352;2023-07-31T00:35:31;94422.22;;;21.59;65.67
56831;BME280;42713;42.676;23.352;2023-07-31T00:37:58;94418.47;;;21.60;66.08
56831;BME280;42713;42.676;23.352;2023-07-31T00:40:23;94421.59;;;21.54;66.64
56831;BME280;42713;42.676;23.352;2023-07-31T00:42:49;94407.50;;;21.53;66.95
56831;BME280;42713;42.676;23.352;2023-07-31T00:45:14;94428.81;;;21.53;67.19
56831;BME280;42713;42.676;23.352;2023-07-31T00:47:40;94420.69;;;21.50;67.51
56831;BME280;42713;42.676;23.352;2023-07-31T00:50:06;94419.25;;;21.43;67.83
56831;BME280;42713;42.676;23.352;2023-07-31T00:52:32;94428.22;;;21.39;68.26
56831;BME280;42713;42.676;23.352;2023-07-31T00:54:58;94424.94;;;21.33;68.88
56831;BME280;42713;42.676;23.352;2023-07-31T00:57:24;94444.25;;;21.30;69.35
56831;BME280;42713;42.676;23.352;2023-07-31T00:59:49;94432.50;;;21.22;70.23
56831;BME280;42713;42.676;23.352;2023-07-31T01:02:15;94423.56;;;21.27;70.17
56831;BME280;42713;42.676;23.352;2023-07-31T01:04:42;94418.56;;;21.25;70.45
56831;BME280;42713;42.676;23.352;2023-07-31T01:07:24;94414.94;;;21.30;70.29
56831;BME280;42713;42.676;23.352;2023-07-31T01:10:15;94418.56;;;21.25;70.43
56831;BME280;42713;42.676;23.352;2023-07-31T01:12:41;94413.53;;;21.24;70.57
56831;BME280;42713;42.676;23.352;2023-07-31T01:15:09;94413.22;;;21.25;70.57
56831;BME280;42713;42.676;23.352;2023-07-31T01:17:41;94414.00;;;21.26;70.60
56831;BME280;42713;42.676;23.352;2023-07-31T01:20:23;94406.34;;;21.24;70.50
56831;BME280;42713;42.676;23.352;2023-07-31T01:23:15;94408.53;;;21.22;70.99
56831;BME280;42713;42.676;23.352;2023-07-31T01:28:32;94417.78;;;21.16;71.38
56831;BME280;42713;42.676;23.352;2023-07-31T01:30:59;94394.78;;;21.03;72.08
56831;BME280;42713;42.676;23.352;2023-07-31T01:33:25;94405.59;;;21.06;72.00
56831;BME280;42713;42.676;23.352;2023-07-31T01:35:52;94401.63;;;21.12;71.91
56831;BME280;42713;42.676;23.352;2023-07-31T01:38:21;94404.81;;;21.06;72.26
56831;BME280;42713;42.676;23.352;2023-07-31T01:40:51;94399.78;;;21.04;72.43
56831;BME280;42713;42.676;23.352;2023-07-31T01:43:17;94399.63;;;21.01;72.68
56831;BME280;42713;42.676;23.352;2023-07-31T01:45:42;94400.91;;;20.94;73.06
56831;BME280;42713;42.676;23.352;2023-07-31T01:48:08;94400.91;;;20.94;73.15
56831;BME280;42713;42.676;23.352;2023-07-31T01:50:33;94402.94;;;20.89;73.66
56831;BME280;42713;42.676;23.352;2023-07-31T01:52:59;94394.50;;;20.87;74.11
56831;BME280;42713;42.676;23.352;2023-07-31T01:55:24;94404.03;;;20.88;74.22
56831;BME280;42713;42.676;23.352;2023-07-31T01:57:50;94414.38;;;20.89;74.22
56831;BME280;42713;42.676;23.352;2023-07-31T02:00:15;94414.06;;;20.82;74.63
56831;BME280;42713;42.676;23.352;2023-07-31T02:02:41;94407.66;;;20.74;75.24
56831;BME280;42713;42.676;23.352;2023-07-31T02:05:06;94414.03;;;20.73;75.32
56831;BME280;42713;42.676;23.352;2023-07-31T02:07:32;94413.91;;;20.78;75.17
56831;BME280;42713;42.676;23.352;2023-07-31T02:09:57;94419.88;;;20.75;75.60
56831;BME280;42713;42.676;23.352;2023-07-31T02:12:26;94422.03;;;20.73;75.70
56831;BME280;42713;42.676;23.352;2023-07-31T02:14:52;94429.56;;;20.71;75.87
56831;BME280;42713;42.676;23.352;2023-07-31T02:17:17;94427.84;;;20.66;76.40
56831;BME280;42713;42.676;23.352;2023-07-31T02:19:42;94427.22;;;20.61;76.59
56831;BME280;42713;42.676;23.352;2023-07-31T02:22:08;94423.47;;;20.62;76.86
56831;BME280;42713;42.676;23.352;2023-07-31T02:24:33;94422.81;;;20.65;77.05
56831;BME280;42713;42.676;23.352;2023-07-31T02:26:59;94423.75;;;20.69;76.65
56831;BME280;42713;42.676;23.352;2023-07-31T02:29:24;94428.16;;;20.74;76.35
56831;BME280;42713;42.676;23.352;2023-07-31T02:31:50;94422.53;;;20.75;76.48
56831;BME280;42713;42.676;23.352;2023-07-31T02:34:15;94422.34;;;20.72;76.71
56831;BME280;42713;42.676;23.352;2023-07-31T02:36:41;94421.09;;;20.78;76.63
56831;BME280;42713;42.676;23.352;2023-07-31T02:39:07;94421.75;;;20.75;76.77
56831;BME280;42713;42.676;23.352;2023-07-31T02:41:32;94419.09;;;20.75;76.83
56831;BME280;42713;42.676;23.352;2023-07-31T02:43:57;94420.19;;;20.74;76.87
56831;BME280;42713;42.676;23.352;2023-07-31T02:46:23;94404.69;;;20.76;76.74
56831;BME280;42713;42.676;23.352;2023-07-31T02:48:50;94426.28;;;20.74;76.97
56831;BME280;42713;42.676;23.352;2023-07-31T02:51:16;94423.00;;;20.77;76.51
56831;BME280;42713;42.676;23.352;2023-07-31T02:53:41;94432.84;;;20.86;76.36
56831;BME280;42713;42.676;23.352;2023-07-31T02:56:07;94431.75;;;20.78;76.20
56831;BME280;42713;42.676;23.352;2023-07-31T02:58:32;94427.22;;;20.78;76.44
56831;BME280;42713;42.676;23.352;2023-07-31T03:00:58;94439.44;;;20.79;76.47
56831;BME280;42713;42.676;23.352;2023-07-31T03:03:24;94438.16;;;20.68;76.54
56831;BME280;42713;42.676;23.352;2023-07-31T03:05:49;94443.63;;;20.72;76.55
56831;BME280;42713;42.676;23.352;2023-07-31T03:08:15;94441.75;;;20.63;76.53
56831;BME280;42713;42.676;23.352;2023-07-31T03:10:40;94447.72;;;20.69;76.75
56831;BME280;42713;42.676;23.352;2023-07-31T03:13:06;94450.84;;;20.71;76.64
56831;BME280;42713;42.676;23.352;2023-07-31T03:15:32;94448.94;;;20.63;76.88
56831;BME280;42713;42.676;23.352;2023-07-31T03:17:57;94450.50;;;20.64;76.89
56831;BME280;42713;42.676;23.352;2023-07-31T03:20:24;94450.84;;;20.62;77.14
56831;BME280;42713;42.676;23.352;2023-07-31T03:22:49;94447.22;;;20.67;76.86
56831;BME280;42713;42.676;23.352;2023-07-31T03:25:15;94467.91;;;20.61;77.06
56831;BME280;42713;42.676;23.352;2023-07-31T03:27:42;94456.00;;;20.59;77.48
56831;BME280;42713;42.676;23.352;2023-07-31T03:30:08;94448.50;;;20.61;77.70
56831;BME280;42713;42.676;23.352;2023-07-31T03:32:39;94459.44;;;20.68;77.31
56831;BME280;42713;42.676;23.352;2023-07-31T03:35:05;94456.31;;;20.66;77.43
56831;BME280;42713;42.676;23.352;2023-07-31T03:37:30;94460.22;;;20.60;77.67
56831;BME280;42713;42.676;23.352;2023-07-31T03:39:56;94466.34;;;20.69;77.28
56831;BME280;42713;42.676;23.352;2023-07-31T03:42:22;94473.41;;;20.74;77.13
56831;BME280;42713;42.676;23.352;2023-07-31T03:44:48;94464.78;;;20.68;76.92
56831;BME280;42713;42.676;23.352;2023-07-31T03:47:13;94461.94;;;20.73;77.03
56831;BME280;42713;42.676;23.352;2023-07-31T03:49:39;94458.03;;;20.71;76.81
56831;BME280;42713;42.676;23.352;2023-07-31T03:52:04;94470.44;;;20.75;76.51
56831;BME280;42713;42.676;23.352;2023-07-31T03:54:30;94468.53;;;20.67;76.48
56831;BME280;42713;42.676;23.352;2023-07-31T03:56:55;94471.97;;;20.67;76.65
56831;BME280;42713;42.676;23.352;2023-07-31T03:59:21;94476.19;;;20.68;76.37
56831;BME280;42713;42.676;23.352;2023-07-31T04:01:46;94475.75;;;20.66;76.36
56831;BME280;42713;42.676;23.352;2023-07-31T04:04:12;94476.50;;;20.58;76.86
56831;BME280;42713;42.676;23.352;2023-07-31T04:06:37;94483.22;;;20.56;77.25
56831;BME280;42713;42.676;23.352;2023-07-31T04:09:03;94477.13;;;20.55;76.97
56831;BME280;42713;42.676;23.352;2023-07-31T04:11:28;94486.97;;;20.55;77.33
56831;BME280;42713;42.676;23.352;2023-07-31T04:13:54;94474.75;;;20.53;77.05
56831;BME280;42713;42.676;23.352;2023-07-31T04:16:19;94476.03;;;20.47;77.37
56831;BME280;42713;42.676;23.352;2023-07-31T04:18:45;94482.91;;;20.48;77.23
56831;BME280;42713;42.676;23.352;2023-07-31T04:21:10;94498.06;;;20.48;77.24
56831;BME280;42713;42.676;23.352;2023-07-31T04:23:36;94487.91;;;20.50;77.37
56831;BME280;42713;42.676;23.352;2023-07-31T04:26:01;94492.63;;;20.53;77.05
56831;BME280;42713;42.676;23.352;2023-07-31T04:28:27;94483.84;;;20.52;77.07
56831;BME280;42713;42.676;23.352;2023-07-31T04:30:52;94486.50;;;20.44;77.13
56831;BME280;42713;42.676;23.352;2023-07-31T04:33:18;94501.06;;;20.46;76.89
56831;BME280;42713;42.676;23.352;2023-07-31T04:35:54;94497.13;;;20.44;76.99
56831;BME280;42713;42.676;23.352;2023-07-31T04:38:20;94501.38;;;20.45;77.11
56831;BME280;42713;42.676;23.352;2023-07-31T04:40:46;94498.56;;;20.50;76.95
56831;BME280;42713;42.676;23.352;2023-07-31T04:43:12;94490.91;;;20.57;76.55
56831;BME280;42713;42.676;23.352;2023-07-31T04:45:38;94493.56;;;20.66;75.77
56831;BME280;42713;42.676;23.352;2023-07-31T04:48:03;94488.56;;;20.73;75.29
56831;BME280;42713;42.676;23.352;2023-07-31T04:50:29;94497.84;;;20.76;74.95
56831;BME280;42713;42.676;23.352;2023-07-31T04:52:56;94488.91;;;20.80;74.80
56831;BME280;42713;42.676;23.352;2023-07-31T04:55:22;94484.38;;;20.81;74.61
56831;BME280;42713;42.676;23.352;2023-07-31T04:57:48;94496.75;;;20.86;74.29
56831;BME280;42713;42.676;23.352;2023-07-31T05:00:17;94485.94;;;20.91;74.29
56831;BME280;42713;42.676;23.352;2023-07-31T05:02:43;94493.00;;;20.95;73.76
56831;BME280;42713;42.676;23.352;2023-07-31T05:05:09;94483.28;;;20.91;74.15
56831;BME280;42713;42.676;23.352;2023-07-31T05:07:35;94481.25;;;20.96;73.92
56831;BME280;42713;42.676;23.352;2023-07-31T05:10:00;94487.34;;;21.06;73.84
56831;BME280;42713;42.676;23.352;2023-07-31T05:12:39;94479.38;;;21.06;73.56
56831;BME280;42713;42.676;23.352;2023-07-31T05:15:05;94486.56;;;21.14;73.60
56831;BME280;42713;42.676;23.352;2023-07-31T05:17:30;94479.81;;;21.25;72.96
56831;BME280;42713;42.676;23.352;2023-07-31T05:19:56;94481.53;;;21.30;72.90
56831;BME280;42713;42.676;23.352;2023-07-31T05:22:21;94486.53;;;21.32;72.99
56831;BME280;42713;42.676;23.352;2023-07-31T05:24:47;94478.06;;;21.38;72.53
56831;BME280;42713;42.676;23.352;2023-07-31T05:27:12;94469.94;;;21.35;71.92
56831;BME280;42713;42.676;23.352;2023-07-31T05:29:40;94483.25;;;21.26;71.86
56831;BME280;42713;42.676;23.352;2023-07-31T05:32:06;94485.28;;;21.29;71.64
56831;BME280;42713;42.676;23.352;2023-07-31T05:34:32;94474.00;;;21.23;70.90
56831;BME280;42713;42.676;23.352;2023-07-31T05:36:57;94476.06;;;21.18;71.60
56831;BME280;42713;42.676;23.352;2023-07-31T05:39:22;94469.00;;;21.13;71.91
56831;BME280;42713;42.676;23.352;2023-07-31T05:41:48;94473.22;;;21.23;71.46
56831;BME280;42713;42.676;23.352;2023-07-31T05:44:13;94499.69;;;21.28;70.80
56831;BME280;42713;42.676;23.352;2023-07-31T05:46:39;94475.91;;;21.14;70.75
56831;BME280;42713;42.676;23.352;2023-07-31T05:49:05;94482.81;;;21.15;70.49
56831;BME280;42713;42.676;23.352;2023-07-31T05:51:30;94491.88;;;21.14;70.15
56831;BME280;42713;42.676;23.352;2023-07-31T05:53:55;94484.50;;;21.02;70.29
56831;BME280;42713;42.676;23.352;2023-07-31T05:56:21;94492.69;;;21.06;70.05
56831;BME280;42713;42.676;23.352;2023-07-31T05:58:47;94482.19;;;21.01;69.93
56831;BME280;42713;42.676;23.352;2023-07-31T06:01:15;94501.28;;;20.94;69.77
56831;BME280;42713;42.676;23.352;2023-07-31T06:03:41;94497.38;;;21.00;68.98
56831;BME280;42713;42.676;23.352;2023-07-31T06:06:06;94505.53;;;21.04;68.91
56831;BME280;42713;42.676;23.352;2023-07-31T06:08:32;94500.66;;;21.06;68.55
56831;BME280;42713;42.676;23.352;2023-07-31T06:10:58;94493.59;;;21.10;68.74
56831;BME280;42713;42.676;23.352;2023-07-31T06:13:23;94498.59;;;21.29;68.22
56831;BME280;42713;42.676;23.352;2023-07-31T06:15:48;94503.44;;;21.44;66.38
56831;BME280;42713;42.676;23.352;2023-07-31T06:18:14;94510.31;;;21.45;66.20
56831;BME280;42713;42.676;23.352;2023-07-31T06:20:39;94516.91;;;21.48;64.87
56831;BME280;42713;42.676;23.352;2023-07-31T06:23:06;94479.88;;;21.55;64.79
56831;BME280;42713;42.676;23.352;2023-07-31T06:25:31;94486.97;;;21.60;64.37
56831;BME280;42713;42.676;23.352;2023-07-31T06:27:57;94494.16;;;21.68;64.61
56831;BME280;42713;42.676;23.352;2023-07-31T06:30:24;94498.06;;;21.80;63.66
56831;BME280;42713;42.676;23.352;2023-07-31T06:32:49;94497.25;;;21.79;63.90
56831;BME280;42713;42.676;23.352;2023-07-31T06:35:15;94496.16;;;21.71;63.94
56831;BME280;42713;42.676;23.352;2023-07-31T06:37:41;94509.69;;;21.49;64.19
56831;BME280;42713;42.676;23.352;2023-07-31T06:40:09;94491.81;;;21.49;64.77
56831;BME280;42713;42.676;23.352;2023-07-31T06:42:35;94496.06;;;21.59;64.91
56831;BME280;42713;42.676;23.352;2023-07-31T06:45:02;94491.66;;;21.63;64.59
56831;BME280;42713;42.676;23.352;2023-07-31T06:47:27;94500.44;;;21.64;64.18
56831;BME280;42713;42.676;23.352;2023-07-31T06:49:53;94517.06;;;21.60;63.95
56831;BME280;42713;42.676;23.352;2023-07-31T06:52:18;94515.66;;;21.54;64.32
56831;BME280;42713;42.676;23.352;2023-07-31T06:54:44;94517.22;;;21.38;64.11
56831;BME280;42713;42.676;23.352;2023-07-31T06:57:09;94514.75;;;21.33;65.07
56831;BME280;42713;42.676;23.352;2023-07-31T06:59:35;94513.75;;;21.46;64.28
56831;BME280;42713;42.676;23.352;2023-07-31T07:02:00;94503.44;;;21.44;63.72
56831;BME280;42713;42.676;23.352;2023-07-31T07:04:26;94503.44;;;21.44;63.64
56831;BME280;42713;42.676;23.352;2023-07-31T07:06:51;94499.00;;;21.57;63.12
56831;BME280;42713;42.676;23.352;2023-07-31T07:09:17;94503.75;;;21.60;62.21
56831;BME280;42713;42.676;23.352;2023-07-31T07:11:43;94504.06;;;21.59;63.25
56831;BME280;42713;42.676;23.352;2023-07-31T07:14:09;94490.69;;;21.76;61.62
56831;BME280;42713;42.676;23.352;2023-07-31T07:16:35;94503.06;;;21.72;62.00
56831;BME280;42713;42.676;23.352;2023-07-31T07:19:00;94502.91;;;21.77;61.80
56831;BME280;42713;42.676;23.352;2023-07-31T07:21:26;94493.31;;;21.85;62.42
56831;BME280;42713;42.676;23.352;2023-07-31T07:23:51;94496.88;;;21.98;61.94
56831;BME280;42713;42.676;23.352;2023-07-31T07:26:19;94539.91;;;21.88;60.37
56831;BME280;42713;42.676;23.352;2023-07-31T07:28:45;94499.91;;;21.79;60.31
56831;BME280;42713;42.676;23.352;2023-07-31T07:31:10;94497.75;;;21.72;60.84
56831;BME280;42713;42.676;23.352;2023-07-31T07:33:36;94495.72;;;21.69;61.36
56831;BME280;42713;42.676;23.352;2023-07-31T07:36:01;94507.31;;;21.73;61.57
56831;BME280;42713;42.676;23.352;2023-07-31T07:38:29;94495.06;;;21.81;61.49
56831;BME280;42713;42.676;23.352;2023-07-31T07:40:54;94514.81;;;21.89;61.80
56831;BME280;42713;42.676;23.352;2023-07-31T07:43:20;94502.72;;;21.91;61.71
56831;BME280;42713;42.676;23.352;2023-07-31T07:45:45;94498.63;;;21.94;61.61
56831;BME280;42713;42.676;23.352;2023-07-31T07:48:11;94510.22;;;21.98;61.17
56831;BME280;42713;42.676;23.352;2023-07-31T07:50:38;94505.44;;;22.13;60.89
56831;BME280;42713;42.676;23.352;2023-07-31T07:53:03;94506.16;;;22.22;60.30
56831;BME280;42713;42.676;23.352;2023-07-31T07:55:29;94504.09;;;22.28;60.00
56831;BME280;42713;42.676;23.352;2023-07-31T07:57:54;94506.91;;;22.40;59.11
56831;BME280;42713;42.676;23.352;2023-07-31T08:00:20;94514.53;;;22.50;58.48
56831;BME280;42713;42.676;23.352;2023-07-31T08:02:46;94519.53;;;22.52;57.04
56831;BME280;42713;42.676;23.352;2023-07-31T08:05:11;94513.56;;;22.55;57.32
56831;BME280;42713;42.676;23.352;2023-07-31T08:07:37;94517.97;;;22.51;57.44
56831;BME280;42713;42.676;23.352;2023-07-31T08:10:06;94525.13;;;22.59;57.74
56831;BME280;42713;42.676;23.352;2023-07-31T08:12:31;94508.34;;;22.59;57.68
56831;BME280;42713;42.676;23.352;2023-07-31T08:14:57;94514.47;;;22.59;57.33
56831;BME280;42713;42.676;23.352;2023-07-31T08:17:22;94522.47;;;22.59;57.30
56831;BME280;42713;42.676;23.352;2023-07-31T08:19:48;94504.97;;;22.70;57.60
56831;BME280;42713;42.676;23.352;2023-07-31T08:22:13;94514.50;;;22.80;56.38
56831;BME280;42713;42.676;23.352;2023-07-31T08:24:42;94498.59;;;22.84;56.40
56831;BME280;42713;42.676;23.352;2023-07-31T08:27:07;94505.66;;;22.89;55.44
56831;BME280;42713;42.676;23.352;2023-07-31T08:29:33;94502.44;;;22.95;55.22
56831;BME280;42713;42.676;23.352;2023-07-31T08:31:58;94501.38;;;23.09;55.67
56831;BME280;42713;42.676;23.352;2023-07-31T08:34:24;94503.19;;;23.17;54.87
56831;BME280;42713;42.676;23.352;2023-07-31T08:36:50;94523.47;;;23.18;54.75
56831;BME280;42713;42.676;23.352;2023-07-31T08:39:15;94496.75;;;23.18;54.55
56831;BME280;42713;42.676;23.352;2023-07-31T08:41:41;94504.59;;;23.23;54.03
56831;BME280;42713;42.676;23.352;2023-07-31T08:44:07;94500.94;;;23.28;54.60
56831;BME280;42713;42.676;23.352;2023-07-31T08:46:33;94507.75;;;23.38;53.76
56831;BME280;42713;42.676;23.352;2023-07-31T08:48:59;94505.44;;;23.36;53.14
56831;BME280;42713;42.676;23.352;2023-07-31T08:51:25;94491.66;;;23.46;53.37
56831;BME280;42713;42.676;23.352;2023-07-31T08:53:53;94502.56;;;23.54;52.63
56831;BME280;42713;42.676;23.352;2023-07-31T08:56:18;94493.28;;;23.39;52.23
56831;BME280;42713;42.676;23.352;2023-07-31T08:58:46;94495.31;;;23.42;52.21
56831;BME280;42713;42.676;23.352;2023-07-31T09:01:13;94499.44;;;23.52;52.11
56831;BME280;42713;42.676;23.352;2023-07-31T09:03:44;94500.59;;;23.63;52.23
56831;BME280;42713;42.676;23.352;2023-07-31T09:06:10;94483.66;;;23.71;52.20
56831;BME280;42713;42.676;23.352;2023-07-31T09:08:41;94503.63;;;23.86;51.34
56831;BME280;42713;42.676;23.352;2023-07-31T09:11:07;94487.38;;;23.91;51.20
56831;BME280;42713;42.676;23.352;2023-07-31T09:13:33;94491.88;;;24.00;51.11
56831;BME280;42713;42.676;23.352;2023-07-31T09:15:58;94495.22;;;24.09;50.53
56831;BME280;42713;42.676;23.352;2023-07-31T09:18:24;94493.13;;;24.15;50.87
56831;BME280;42713;42.676;23.352;2023-07-31T09:21:05;94495.91;;;24.31;50.09
56831;BME280;42713;42.676;23.352;2023-07-31T09:23:45;94492.78;;;24.41;49.80
56831;BME280;42713;42.676;23.352;2023-07-31T09:26:11;94493.44;;;24.38;48.91
56831;BME280;42713;42.676;23.352;2023-07-31T09:28:53;94497.00;;;24.42;48.45
56831;BME280;42713;42.676;23.352;2023-07-31T09:31:41;94473.59;;;24.39;48.83
56831;BME280;42713;42.676;23.352;2023-07-31T09:34:06;94466.44;;;24.43;49.42
56831;BME280;42713;42.676;23.352;2023-07-31T09:36:32;94468.44;;;24.46;48.68
56831;BME280;42713;42.676;23.352;2023-07-31T09:39:04;94465.75;;;24.59;49.11
56831;BME280;42713;42.676;23.352;2023-07-31T09:41:30;94464.63;;;24.72;49.22
56831;BME280;42713;42.676;23.352;2023-07-31T09:43:56;94480.09;;;24.79;48.45
56831;BME280;42713;42.676;23.352;2023-07-31T09:46:22;94470.97;;;24.80;47.63
56831;BME280;42713;42.676;23.352;2023-07-31T09:48:48;94453.22;;;24.75;48.48
56831;BME280;42713;42.676;23.352;2023-07-31T09:51:13;94473.97;;;24.78;48.17
56831;BME280;42713;42.676;23.352;2023-07-31T09:53:39;94465.75;;;24.71;47.77
56831;BME280;42713;42.676;23.352;2023-07-31T09:56:05;94460.84;;;24.61;48.61
56831;BME280;42713;42.676;23.352;2023-07-31T09:58:34;94455.47;;;24.61;47.85
56831;BME280;42713;42.676;23.352;2023-07-31T10:01:01;94459.59;;;24.70;48.02
56831;BME280;42713;42.676;23.352;2023-07-31T10:03:29;94445.91;;;24.72;47.46
56831;BME280;42713;42.676;23.352;2023-07-31T10:05:57;94460.16;;;24.76;47.10
56831;BME280;42713;42.676;23.352;2023-07-31T10:08:28;94446.44;;;24.78;46.70
56831;BME280;42713;42.676;23.352;2023-07-31T10:10:58;94460.28;;;24.67;46.24
56831;BME280;42713;42.676;23.352;2023-07-31T10:13:24;94455.03;;;24.59;46.29
56831;BME280;42713;42.676;23.352;2023-07-31T10:15:50;94449.59;;;24.55;47.58
56831;BME280;42713;42.676;23.352;2023-07-31T10:18:18;94458.16;;;24.61;47.21
56831;BME280;42713;42.676;23.352;2023-07-31T10:20:44;94451.44;;;24.67;46.84
56831;BME280;42713;42.676;23.352;2023-07-31T10:23:10;94450.34;;;24.68;47.41
56831;BME280;42713;42.676;23.352;2023-07-31T10:25:38;94457.34;;;24.85;46.68
56831;BME280;42713;42.676;23.352;2023-07-31T10:28:04;94455.75;;;24.96;45.83
56831;BME280;42713;42.676;23.352;2023-07-31T10:30:32;94441.72;;;24.87;45.81
56831;BME280;42713;42.676;23.352;2023-07-31T10:32:59;94441.28;;;24.85;45.94
56831;BME280;42713;42.676;23.352;2023-07-31T10:35:25;94441.38;;;24.89;46.00
56831;BME280;42713;42.676;23.352;2023-07-31T10:37:52;94443.56;;;24.99;45.80
56831;BME280;42713;42.676;23.352;2023-07-31T10:40:20;94450.00;;;25.10;44.04
56831;BME280;42713;42.676;23.352;2023-07-31T10:42:49;94434.00;;;25.14;44.22
56831;BME280;42713;42.676;23.352;2023-07-31T10:45:25;94431.88;;;25.20;44.50
56831;BME280;42713;42.676;23.352;2023-07-31T10:48:01;94425.16;;;25.13;44.21
56831;BME280;42713;42.676;23.352;2023-07-31T10:50:28;94428.16;;;25.24;44.48
56831;BME280;42713;42.676;23.352;2023-07-31T10:52:56;94441.72;;;25.31;44.38
56831;BME280;42713;42.676;23.352;2023-07-31T10:55:33;94427.50;;;25.43;43.30
56831;BME280;42713;42.676;23.352;2023-07-31T10:58:07;94424.75;;;25.56;43.30
56831;BME280;42713;42.676;23.352;2023-07-31T11:00:33;94410.06;;;25.66;43.61
56831;BME280;42713;42.676;23.352;2023-07-31T11:03:10;94420.75;;;25.82;43.55
56831;BME280;42713;42.676;23.352;2023-07-31T11:05:52;94414.88;;;25.92;42.87
56831;BME280;42713;42.676;23.352;2023-07-31T11:08:24;94406.34;;;25.86;42.63
56831;BME280;42713;42.676;23.352;2023-07-31T11:13:32;94400.44;;;25.81;41.62
56831;BME280;42713;42.676;23.352;2023-07-31T11:15:59;94397.66;;;25.93;40.66
56831;BME280;42713;42.676;23.352;2023-07-31T11:18:26;94408.97;;;26.18;41.00
56831;BME280;42713;42.676;23.352;2023-07-31T11:20:54;94411.19;;;26.32;40.42
56831;BME280;42713;42.676;23.352;2023-07-31T11:23:21;94400.47;;;26.52;40.26
56831;BME280;42713;42.676;23.352;2023-07-31T11:25:46;94408.91;;;26.50;40.28
56831;BME280;42713;42.676;23.352;2023-07-31T11:28:13;94410.13;;;26.37;39.66
56831;BME280;42713;42.676;23.352;2023-07-31T11:30:40;94420.72;;;26.30;39.88
56831;BME280;42713;42.676;23.352;2023-07-31T11:33:06;94406.53;;;26.29;40.36
56831;BME280;42713;42.676;23.352;2023-07-31T11:35:34;94415.28;;;26.26;40.25
56831;BME280;42713;42.676;23.352;2023-07-31T11:38:00;94423.88;;;26.16;40.05
56831;BME280;42713;42.676;23.352;2023-07-31T11:40:27;94398.09;;;25.95;39.90
56831;BME280;42713;42.676;23.352;2023-07-31T11:43:04;94404.66;;;26.14;40.30
56831;BME280;42713;42.676;23.352;2023-07-31T11:45:30;94395.59;;;26.38;39.55
56831;BME280;42713;42.676;23.352;2023-07-31T11:47:56;94403.06;;;26.29;40.84
56831;BME280;42713;42.676;23.352;2023-07-31T11:50:23;94393.75;;;26.42;40.70
56831;BME280;42713;42.676;23.352;2023-07-31T11:52:59;94395.50;;;26.34;41.22
56831;BME280;42713;42.676;23.352;2023-07-31T11:55:25;94398.81;;;26.28;40.56
56831;BME280;42713;42.676;23.352;2023-07-31T11:57:52;94404.06;;;26.40;40.61
56831;BME280;42713;42.676;23.352;2023-07-31T12:00:19;94410.88;;;26.53;39.41
56831;BME280;42713;42.676;23.352;2023-07-31T12:02:45;94401.03;;;26.61;39.72
56831;BME280;42713;42.676;23.352;2023-07-31T12:05:12;94415.84;;;26.71;39.58
56831;BME280;42713;42.676;23.352;2023-07-31T12:07:50;94393.25;;;26.92;39.22
56831;BME280;42713;42.676;23.352;2023-07-31T12:15:44;94384.19;;;26.80;39.62
56831;BME280;42713;42.676;23.352;2023-07-31T12:18:14;94387.47;;;26.73;38.85
56831;BME280;42713;42.676;23.352;2023-07-31T12:20:47;94367.06;;;26.88;39.18
56831;BME280;42713;42.676;23.352;2023-07-31T12:25:40;94384.84;;;27.16;39.86
56831;BME280;42713;42.676;23.352;2023-07-31T12:28:07;94373.69;;;26.95;39.10
56831;BME280;42713;42.676;23.352;2023-07-31T12:30:38;94378.88;;;26.84;38.81
56831;BME280;42713;42.676;23.352;2023-07-31T12:33:15;94370.66;;;26.77;39.46
56831;BME280;42713;42.676;23.352;2023-07-31T12:35:44;94366.88;;;26.78;39.72
56831;BME280;42713;42.676;23.352;2023-07-31T12:38:10;94362.75;;;26.64;39.51
56831;BME280;42713;42.676;23.352;2023-07-31T12:40:38;94364.25;;;26.81;39.65
56831;BME280;42713;42.676;23.352;2023-07-31T12:43:04;94372.81;;;26.87;38.71
56831;BME280;42713;42.676;23.352;2023-07-31T12:45:30;94372.88;;;26.91;39.23
56831;BME280;42713;42.676;23.352;2023-07-31T12:48:00;94364.44;;;26.92;38.59
56831;BME280;42713;42.676;23.352;2023-07-31T12:50:29;94363.41;;;26.77;39.03
56831;BME280;42713;42.676;23.352;2023-07-31T12:53:12;94354.81;;;26.71;39.48
56831;BME280;42713;42.676;23.352;2023-07-31T12:55:37;94366.84;;;26.58;39.18
56831;BME280;42713;42.676;23.352;2023-07-31T12:58:03;94345.38;;;26.38;39.63
56831;BME280;42713;42.676;23.352;2023-07-31T13:00:29;94351.63;;;26.46;39.31
56831;BME280;42713;42.676;23.352;2023-07-31T13:02:59;94348.53;;;26.64;39.39